createdAt,value
2018-05-23T00:01:40.882Z,0.00
2018-05-23T00:04:22.921Z,0.00
2018-05-23T00:05:24.846Z,0.00
2018-05-23T00:06:22.732Z,0.00
2018-05-23T00:07:25.075Z,0.00
2018-05-23T00:08:22.592Z,0.00
2018-05-23T00:10:49.884Z,0.00
2018-05-23T00:11:49.888Z,0.00
2018-05-23T00:12:49.735Z,0.00
2018-05-23T00:15:31.929Z,0.00
2018-05-23T00:18:13.893Z,0.00
2018-05-23T00:27:20.775Z,0.00
2018-05-23T00:28:20.698Z,0.00
2018-05-23T00:29:20.598Z,0.00
2018-05-23T00:30:20.656Z,0.00
2018-05-23T00:31:20.431Z,0.00
2018-05-23T00:32:22.464Z,0.00
2018-05-23T00:46:35.911Z,0.00
2018-05-23T00:47:35.748Z,0.00
2018-05-23T00:48:35.773Z,0.00
2018-05-23T00:49:35.582Z,0.00
2018-05-23T00:50:35.595Z,0.00
2018-05-23T00:51:35.536Z,0.00
2018-05-23T00:52:35.398Z,0.00
2018-05-23T00:53:35.285Z,0.00
2018-05-23T00:54:35.323Z,0.00
2018-05-23T00:55:35.137Z,0.00
2018-05-23T00:56:35.119Z,0.00
2018-05-23T00:57:34.962Z,0.00
2018-05-23T00:58:34.914Z,0.00
2018-05-23T00:59:34.805Z,0.00
2018-05-23T01:00:34.868Z,0.00
2018-05-23T01:01:34.652Z,0.00
2018-05-23T01:04:16.892Z,0.00
2018-05-23T01:05:16.896Z,0.00
2018-05-23T01:06:16.756Z,0.00
2018-05-23T01:07:16.787Z,0.00
2018-05-23T01:08:16.576Z,0.00
2018-05-23T01:09:16.573Z,0.00
2018-05-23T01:10:16.432Z,0.00
2018-05-23T01:11:16.406Z,0.00
2018-05-23T01:12:16.267Z,0.00
2018-05-23T01:13:16.280Z,0.00
2018-05-23T01:14:16.117Z,0.00
2018-05-23T01:15:16.095Z,0.00
2018-05-23T01:16:15.982Z,0.00
2018-05-23T01:17:15.948Z,0.00
2018-05-23T01:18:15.798Z,0.00
2018-05-23T01:19:15.811Z,0.00
2018-05-23T01:20:15.654Z,0.00
2018-05-23T01:21:15.625Z,0.00
2018-05-23T01:22:15.485Z,0.00
2018-05-23T01:23:15.670Z,0.00
2018-05-23T01:24:15.329Z,0.00
2018-05-23T01:25:15.344Z,0.00
2018-05-23T01:26:15.175Z,0.00
2018-05-23T01:27:15.183Z,0.00
2018-05-23T01:28:15.015Z,0.00
2018-05-23T01:29:15.055Z,0.00
2018-05-23T01:30:14.858Z,0.00
2018-05-23T01:32:56.915Z,0.00
2018-05-23T01:35:38.907Z,0.00
2018-05-23T01:36:59.806Z,0.00
2018-05-23T01:37:38.799Z,0.00
2018-05-23T01:38:38.770Z,0.00
2018-05-23T01:39:38.602Z,0.00
2018-05-23T01:40:38.586Z,0.00
2018-05-23T01:41:38.454Z,0.00
2018-05-23T01:42:38.390Z,0.00
2018-05-23T01:43:38.288Z,0.00
2018-05-23T01:44:38.295Z,0.00
2018-05-23T01:45:38.122Z,0.00
2018-05-23T01:46:38.105Z,0.00
2018-05-23T01:47:37.963Z,0.00
2018-05-23T01:48:37.950Z,0.00
2018-05-23T01:49:37.807Z,0.00
2018-05-23T01:50:37.836Z,0.00
2018-05-23T01:51:37.648Z,0.00
2018-05-23T01:52:37.634Z,0.00
2018-05-23T01:53:37.538Z,0.00
2018-05-23T01:54:37.542Z,0.00
2018-05-23T01:55:37.344Z,0.00
2018-05-23T01:58:19.437Z,0.00
2018-05-23T02:01:18.897Z,0.00
2018-05-23T02:02:18.885Z,0.00
2018-05-23T02:03:18.744Z,0.00
2018-05-23T02:04:18.812Z,0.00
2018-05-23T02:05:18.581Z,0.00
2018-05-23T02:06:18.601Z,0.00
2018-05-23T02:07:18.430Z,0.00
2018-05-23T02:08:18.394Z,0.00
2018-05-23T02:09:18.282Z,0.00
2018-05-23T02:10:18.294Z,0.00
2018-05-23T02:11:18.109Z,0.00
2018-05-23T02:12:18.043Z,0.00
2018-05-23T02:13:17.956Z,0.00
2018-05-23T02:14:17.912Z,0.00
2018-05-23T02:15:17.813Z,0.00
2018-05-23T02:16:17.832Z,0.00
2018-05-23T02:17:17.659Z,0.00
2018-05-23T02:18:17.637Z,0.00
2018-05-23T02:19:17.483Z,0.00
2018-05-23T02:20:17.489Z,0.00
2018-05-23T02:21:17.334Z,0.00
2018-05-23T02:22:17.353Z,0.00
2018-05-23T02:23:17.177Z,0.00
2018-05-23T02:24:17.158Z,0.00
2018-05-23T02:25:17.035Z,0.00
2018-05-23T02:26:16.973Z,0.00
2018-05-23T02:27:16.854Z,0.00
2018-05-23T02:28:16.878Z,0.00
2018-05-23T02:29:16.702Z,0.00
2018-05-23T02:30:16.735Z,0.00
2018-05-23T02:31:16.543Z,0.00
2018-05-23T02:33:58.430Z,0.00
2018-05-23T02:34:58.398Z,0.00
2018-05-23T02:35:58.288Z,0.00
2018-05-23T02:36:58.312Z,0.00
2018-05-23T02:37:58.100Z,0.00
2018-05-23T02:38:58.119Z,0.00
2018-05-23T02:39:57.943Z,0.00
2018-05-23T02:40:57.975Z,0.00
2018-05-23T02:41:57.823Z,0.00
2018-05-23T02:42:57.831Z,0.00
2018-05-23T02:43:57.631Z,0.00
2018-05-23T02:44:57.637Z,0.00
2018-05-23T02:45:57.501Z,0.00
2018-05-23T02:46:57.481Z,0.00
2018-05-23T02:47:57.314Z,0.00
2018-05-23T02:48:57.356Z,0.00
2018-05-23T02:49:57.165Z,0.00
2018-05-23T02:50:57.194Z,0.00
2018-05-23T02:51:57.015Z,0.00
2018-05-23T02:52:56.983Z,0.00
2018-05-23T02:53:56.856Z,0.00
2018-05-23T02:54:56.897Z,0.00
2018-05-23T02:55:56.696Z,0.00
2018-05-23T02:56:57.753Z,4.00
2018-05-23T02:57:56.532Z,4.00
2018-05-23T02:58:56.506Z,4.00
2018-05-23T02:59:56.393Z,4.00
2018-05-23T03:00:56.422Z,0.00
2018-05-23T03:01:56.251Z,4.00
2018-05-23T03:02:56.229Z,4.00
2018-05-23T03:03:56.065Z,8.00
2018-05-23T03:06:37.978Z,8.00
2018-05-23T03:07:39.876Z,8.00
2018-05-23T03:08:37.781Z,8.00
2018-05-23T03:09:40.125Z,8.00
2018-05-23T03:10:37.627Z,12.00
2018-05-23T03:11:40.359Z,16.00
2018-05-23T03:12:37.505Z,16.00
2018-05-23T03:15:30.926Z,20.00
2018-05-23T03:16:30.925Z,24.00
2018-05-23T03:17:30.788Z,24.00
2018-05-23T03:18:30.729Z,28.00
2018-05-23T03:19:30.622Z,32.00
2018-05-23T03:34:59.754Z,108.00
2018-05-23T03:35:59.552Z,112.00
2018-05-23T03:38:41.490Z,132.00
2018-05-23T03:41:23.436Z,152.00
2018-05-23T03:42:23.410Z,164.00
2018-05-23T03:43:23.302Z,168.00
2018-05-23T03:44:23.338Z,184.00
2018-05-23T03:45:23.128Z,188.00
2018-05-23T03:46:23.142Z,204.00
2018-05-23T03:47:22.967Z,216.00
2018-05-23T03:48:22.977Z,224.00
2018-05-23T03:49:22.811Z,236.00
2018-05-23T03:50:22.859Z,248.00
2018-05-23T03:51:22.655Z,264.00
2018-05-23T03:52:22.658Z,272.00
2018-05-23T03:53:22.557Z,288.00
2018-05-23T03:54:22.477Z,300.00
2018-05-23T03:55:22.349Z,312.00
2018-05-23T03:56:22.382Z,324.00
2018-05-23T03:57:22.182Z,344.00
2018-05-23T03:58:22.225Z,360.00
2018-05-23T03:59:22.030Z,380.00
2018-05-23T04:00:21.990Z,400.00
2018-05-23T04:01:21.871Z,420.00
2018-05-23T04:02:21.907Z,440.00
2018-05-23T04:03:21.734Z,460.00
2018-05-23T04:04:21.745Z,476.00
2018-05-23T04:05:21.558Z,496.00
2018-05-23T04:06:21.523Z,516.00
2018-05-23T04:07:21.403Z,536.00
2018-05-23T04:08:21.438Z,560.00
2018-05-23T04:09:21.264Z,584.00
2018-05-23T04:10:21.253Z,608.00
2018-05-23T04:11:21.089Z,636.00
2018-05-23T04:12:21.051Z,660.00
2018-05-23T04:13:20.933Z,688.00
2018-05-23T04:14:21.007Z,712.00
2018-05-23T04:15:20.784Z,732.00
2018-05-23T04:16:20.782Z,760.00
2018-05-23T04:17:20.621Z,784.00
2018-05-23T04:18:20.587Z,808.00
2018-05-23T04:19:20.480Z,824.00
2018-05-23T04:20:20.498Z,840.00
2018-05-23T04:21:20.309Z,848.00
2018-05-23T04:22:20.313Z,852.00
2018-05-23T04:23:20.161Z,852.00
2018-05-23T04:24:20.146Z,848.00
2018-05-23T04:25:20.010Z,852.00
2018-05-23T04:26:20.016Z,856.00
2018-05-23T04:27:19.839Z,864.00
2018-05-23T04:28:19.824Z,884.00
2018-05-23T04:29:19.687Z,904.00
2018-05-23T04:30:20.688Z,932.00
2018-05-23T04:31:19.529Z,960.00
2018-05-23T04:34:01.456Z,1024.00
2018-05-23T04:35:02.503Z,1044.00
2018-05-23T04:36:01.321Z,1056.00
2018-05-23T04:38:43.465Z,1080.00
2018-05-23T04:39:48.583Z,1096.00
2018-05-23T04:40:43.317Z,1108.00
2018-05-23T04:41:43.263Z,1116.00
2018-05-23T04:42:43.140Z,1120.00
2018-05-23T04:43:43.176Z,1124.00
2018-05-23T04:44:42.987Z,1132.00
2018-05-23T04:45:43.020Z,1144.00
2018-05-23T04:46:42.844Z,1160.00
2018-05-23T04:49:24.962Z,1212.00
2018-05-23T04:50:25.018Z,1224.00
2018-05-23T04:51:24.815Z,1228.00
2018-05-23T04:52:24.806Z,1232.00
2018-05-23T04:53:24.643Z,1228.00
2018-05-23T04:54:24.575Z,1224.00
2018-05-23T04:55:24.511Z,1224.00
2018-05-23T04:56:25.470Z,1224.00
2018-05-23T04:57:24.328Z,1228.00
2018-05-23T04:58:24.329Z,1236.00
2018-05-23T04:59:24.194Z,1248.00
2018-05-23T05:02:06.488Z,1276.00
2018-05-23T05:03:06.455Z,1292.00
2018-05-23T05:04:06.308Z,1312.00
2018-05-23T05:05:06.350Z,1336.00
2018-05-23T05:06:06.167Z,1360.00
2018-05-23T05:07:06.168Z,1388.00
2018-05-23T05:08:06.000Z,1420.00
2018-05-23T05:30:29.072Z,1996.00
2018-05-23T05:31:27.939Z,2080.00
2018-05-23T05:32:27.936Z,2160.00
2018-05-23T05:33:27.792Z,2248.00
2018-05-23T05:34:27.742Z,2328.00
2018-05-23T05:35:27.624Z,2420.00
2018-05-23T05:36:27.649Z,2524.00
2018-05-23T05:37:27.479Z,2632.00
2018-05-23T05:38:27.455Z,2712.00
2018-05-23T05:39:27.321Z,2768.00
2018-05-23T05:40:27.261Z,2812.00
2018-05-23T05:41:27.152Z,2840.00
2018-05-23T05:42:27.218Z,2864.00
2018-05-23T05:43:26.997Z,2896.00
2018-05-23T05:44:26.983Z,2912.00
2018-05-23T05:45:26.844Z,2924.00
2018-05-23T05:48:08.986Z,2976.00
2018-05-23T05:49:09.021Z,2980.00
2018-05-23T05:50:08.817Z,2988.00
2018-05-23T05:52:50.999Z,3112.00
2018-05-23T05:53:53.598Z,3108.00
2018-05-23T05:54:50.831Z,3144.00
2018-05-23T05:57:36.977Z,3344.00
2018-05-23T05:58:58.948Z,3372.00
2018-05-23T05:59:36.847Z,3432.00
2018-05-23T06:00:36.818Z,3496.00
2018-05-23T06:01:36.668Z,3544.00
2018-05-23T06:02:36.634Z,3596.00
2018-05-23T06:03:36.524Z,3660.00
2018-05-23T06:04:36.560Z,3736.00
2018-05-23T06:05:36.344Z,3812.00
2018-05-23T06:06:36.359Z,3884.00
2018-05-23T06:07:36.190Z,3936.00
2018-05-23T06:10:01.097Z,4060.00
2018-05-23T06:21:12.421Z,5112.00
2018-05-23T06:22:12.312Z,5180.00
2018-05-23T06:23:12.298Z,5216.00
2018-05-23T06:24:12.139Z,5284.00
2018-05-23T06:25:13.159Z,5380.00
2018-05-23T06:26:12.016Z,5504.00
2018-05-23T06:27:12.016Z,5612.00
2018-05-23T06:28:11.813Z,5672.00
2018-05-23T06:29:11.813Z,5696.00
2018-05-23T06:30:11.683Z,5700.00
2018-05-23T06:31:11.667Z,5704.00
2018-05-23T06:32:11.526Z,5672.00
2018-05-23T06:33:11.536Z,5632.00
2018-05-23T06:34:11.350Z,5600.00
2018-05-23T06:35:11.388Z,5576.00
2018-05-23T06:36:11.196Z,5708.00
2018-05-23T06:38:53.535Z,6224.00
2018-05-23T06:39:55.930Z,6428.00
2018-05-23T06:40:53.423Z,6592.00
2018-05-23T06:41:55.255Z,6736.00
2018-05-23T06:42:54.090Z,6880.00
2018-05-23T06:45:39.514Z,7120.00
2018-05-23T06:46:39.473Z,7156.00
2018-05-23T06:47:39.337Z,7168.00
2018-05-23T06:48:39.296Z,7224.00
2018-05-23T06:49:39.200Z,7320.00
2018-05-23T06:50:39.246Z,7388.00
2018-05-23T06:51:39.023Z,7392.00
2018-05-23T06:52:39.049Z,7392.00
2018-05-23T06:53:38.874Z,7404.00
2018-05-23T06:54:38.789Z,7424.00
2018-05-23T06:57:24.523Z,7528.00
2018-05-23T06:58:24.421Z,7596.00
2018-05-23T06:59:24.340Z,7632.00
2018-05-23T07:00:24.334Z,7608.00
2018-05-23T07:01:24.185Z,7632.00
2018-05-23T07:02:24.259Z,7584.00
2018-05-23T07:03:24.036Z,7512.00
2018-05-23T07:06:23.993Z,7956.00
2018-05-23T07:07:25.020Z,8112.00
2018-05-23T07:08:23.844Z,8444.00
2018-05-23T07:09:23.858Z,9008.00
2018-05-23T07:10:23.701Z,9476.00
2018-05-23T07:13:06.029Z,10328.00
2018-05-23T07:14:05.981Z,10628.00
2018-05-23T07:15:05.848Z,10920.00
2018-05-23T07:16:05.882Z,11204.00
2018-05-23T07:17:05.695Z,11472.00
2018-05-23T07:18:05.796Z,11760.00
2018-05-23T07:19:05.537Z,12012.00
2018-05-23T07:20:05.459Z,12232.00
2018-05-23T07:21:05.400Z,12400.00
2018-05-23T07:22:05.309Z,12584.00
2018-05-23T07:23:05.247Z,12764.00
2018-05-23T07:24:05.259Z,12972.00
2018-05-23T07:25:05.088Z,13164.00
2018-05-23T07:26:05.134Z,13312.00
2018-05-23T07:27:04.915Z,13416.00
2018-05-23T07:28:05.901Z,13540.00
2018-05-23T07:29:04.793Z,13604.00
2018-05-23T07:31:47.028Z,13636.00
2018-05-23T07:32:47.087Z,13656.00
2018-05-23T07:33:46.879Z,14008.00
2018-05-23T07:34:46.862Z,14552.00
2018-05-23T07:35:46.705Z,14808.00
2018-05-23T07:36:46.672Z,15200.00
2018-05-23T07:37:46.561Z,15936.00
2018-05-23T07:38:46.611Z,16224.00
2018-05-23T07:39:46.464Z,16160.00
2018-05-23T07:40:46.408Z,16256.00
2018-05-23T07:41:46.266Z,16064.00
2018-05-23T07:42:46.206Z,16352.00
2018-05-23T07:43:46.159Z,16576.00
2018-05-23T07:46:28.013Z,16480.00
2018-05-23T07:47:28.003Z,16224.00
2018-05-23T07:48:27.882Z,15560.00
2018-05-23T07:49:27.807Z,15660.00
2018-05-23T07:50:27.811Z,15612.00
2018-05-23T07:51:27.727Z,15472.00
2018-05-23T07:52:27.571Z,15252.00
2018-05-23T07:53:27.577Z,15028.00
2018-05-23T07:54:27.429Z,14936.00
2018-05-23T07:55:27.447Z,14844.00
2018-05-23T07:56:27.274Z,14796.00
2018-05-23T07:57:27.248Z,14756.00
2018-05-23T07:58:27.131Z,14780.00
2018-05-23T07:59:27.067Z,15032.00
2018-05-23T08:00:27.002Z,15324.00
2018-05-23T08:01:26.982Z,15516.00
2018-05-23T08:02:26.809Z,15356.00
2018-05-23T08:05:09.044Z,17504.00
2018-05-23T08:06:08.981Z,18208.00
2018-05-23T08:07:08.870Z,18720.00
2018-05-23T08:09:51.018Z,20256.00
2018-05-23T08:10:51.024Z,21824.00
2018-05-23T08:11:50.876Z,21248.00
2018-05-23T08:12:50.907Z,22080.00
2018-05-23T08:13:50.719Z,22176.00
2018-05-23T08:14:50.747Z,23200.00
2018-05-23T08:15:50.620Z,24736.00
2018-05-23T08:16:50.621Z,24704.00
2018-05-23T08:17:50.427Z,22688.00
2018-05-23T08:18:50.444Z,26304.00
2018-05-23T08:19:50.272Z,26816.00
2018-05-23T08:20:50.277Z,28928.00
2018-05-23T08:21:50.121Z,29920.00
2018-05-23T08:22:50.155Z,33024.00
2018-05-23T08:23:49.971Z,33504.00
2018-05-23T08:26:32.052Z,24800.00
2018-05-23T08:27:32.069Z,21824.00
2018-05-23T08:28:31.877Z,20416.00
2018-05-23T08:29:31.885Z,19616.00
2018-05-23T08:30:31.740Z,19552.00
2018-05-23T08:31:32.736Z,19840.00
2018-05-23T08:32:31.583Z,20352.00
2018-05-23T08:35:13.529Z,21120.00
2018-05-23T08:36:13.472Z,21536.00
2018-05-23T08:37:13.402Z,22272.00
2018-05-23T08:39:55.551Z,23264.00
2018-05-23T08:40:55.500Z,23648.00
2018-05-23T08:41:55.406Z,24704.00
2018-05-23T08:42:55.316Z,26112.00
2018-05-23T08:43:55.250Z,28576.00
2018-05-23T08:46:37.534Z,62624.00
2018-05-23T08:47:37.515Z,60448.00
2018-05-23T08:48:37.399Z,57792.00
2018-05-23T08:51:19.531Z,50944.00
2018-05-23T08:52:19.511Z,54976.00
2018-05-23T08:53:19.392Z,52224.00
2018-05-23T08:54:19.363Z,50048.00
2018-05-23T08:55:19.256Z,47584.00
2018-05-23T08:58:01.562Z,46976.00
2018-05-23T08:59:06.367Z,47200.00
2018-05-23T09:00:01.396Z,47616.00
2018-05-23T09:01:01.358Z,48128.00
2018-05-23T09:02:01.272Z,49632.00
2018-05-23T09:03:01.303Z,51488.00
2018-05-23T09:04:01.122Z,51968.00
2018-05-23T09:05:01.220Z,51392.00
2018-05-23T09:06:00.988Z,50880.00
2018-05-23T09:08:43.058Z,51616.00
2018-05-23T09:09:43.091Z,52576.00
2018-05-23T09:10:42.929Z,49856.00
2018-05-23T09:11:42.888Z,48256.00
2018-05-23T09:12:42.825Z,51232.00
2018-05-23T09:13:42.821Z,53536.00
2018-05-23T09:14:42.640Z,58464.00
2018-05-23T09:15:42.754Z,59680.00
2018-05-23T09:16:42.521Z,61088.00
2018-05-23T09:17:42.533Z,59360.00
2018-05-23T09:18:42.479Z,62016.00
2018-05-23T09:19:42.329Z,67040.00
2018-05-23T09:20:42.239Z,68896.00
2018-05-23T09:21:42.274Z,70240.00
2018-05-23T09:22:42.097Z,72352.00
2018-05-23T09:23:42.158Z,70816.00
2018-05-23T09:24:41.972Z,71936.00
2018-05-23T09:25:41.968Z,70048.00
2018-05-23T09:26:41.828Z,69504.00
2018-05-23T09:27:41.878Z,68000.00
2018-05-23T09:28:41.787Z,70368.00
2018-05-23T09:29:41.716Z,89248.00
2018-05-23T09:30:41.575Z,39520.00
2018-05-23T09:31:41.611Z,40288.00
2018-05-23T09:32:41.435Z,119680.00
2018-05-23T09:33:41.455Z,73248.00
2018-05-23T09:34:41.323Z,74208.00
2018-05-23T09:35:41.344Z,73760.00
2018-05-23T09:36:41.187Z,73920.00
2018-05-23T09:37:41.238Z,75616.00
2018-05-23T09:38:41.046Z,74784.00
2018-05-23T09:39:41.061Z,76512.00
2018-05-23T09:40:41.030Z,75936.00
2018-05-23T09:41:40.945Z,77856.00
2018-05-23T09:42:40.812Z,75360.00
2018-05-23T09:43:40.849Z,33536.00
2018-05-23T09:44:40.771Z,73504.00
2018-05-23T09:45:40.694Z,50752.00
2018-05-23T09:46:40.545Z,48224.00
2018-05-23T09:47:40.564Z,80608.00
2018-05-23T09:48:40.404Z,77056.00
2018-05-23T09:51:22.592Z,64608.00
2018-05-23T09:52:22.613Z,53504.00
2018-05-23T09:53:22.423Z,80064.00
2018-05-23T09:54:22.491Z,65792.00
2018-05-23T09:55:22.300Z,75904.00
2018-05-23T09:56:23.385Z,71040.00
2018-05-23T09:57:22.204Z,61152.00
2018-05-23T09:58:22.219Z,46304.00
2018-05-23T09:59:22.065Z,56672.00
2018-05-23T10:00:22.014Z,64288.00
2018-05-23T10:01:21.950Z,57440.00
2018-05-23T10:02:21.932Z,53728.00
2018-05-23T10:03:21.902Z,58432.00
2018-05-23T10:04:21.891Z,49088.00
2018-05-23T10:05:21.665Z,51808.00
2018-05-23T10:06:21.648Z,48096.00
2018-05-23T10:07:21.529Z,33696.00
2018-05-23T10:08:22.537Z,39776.00
2018-05-23T10:09:21.401Z,41184.00
2018-05-23T10:10:21.381Z,38592.00
2018-05-23T10:11:21.270Z,41152.00
2018-05-23T10:12:22.350Z,35136.00
2018-05-23T10:13:21.141Z,38080.00
2018-05-23T10:14:21.193Z,40384.00
2018-05-23T10:15:21.022Z,37760.00
2018-05-23T10:16:21.031Z,40288.00
2018-05-23T10:17:20.873Z,39552.00
2018-05-23T10:18:20.950Z,35136.00
2018-05-23T10:19:20.739Z,35104.00
2018-05-23T10:20:20.741Z,40576.00
2018-05-23T10:21:20.610Z,44992.00
2018-05-23T10:22:20.674Z,47648.00
2018-05-23T10:23:20.472Z,41728.00
2018-05-23T10:24:20.437Z,36032.00
2018-05-23T10:25:20.336Z,32192.00
2018-05-23T10:26:20.425Z,35584.00
2018-05-23T10:27:20.195Z,41536.00
2018-05-23T10:30:02.072Z,40512.00
2018-05-23T10:31:02.074Z,45184.00
2018-05-23T10:32:02.019Z,49120.00
2018-05-23T10:33:02.004Z,48544.00
2018-05-23T10:34:01.817Z,38176.00
2018-05-23T10:35:01.785Z,31936.00
2018-05-23T10:36:01.658Z,44576.00
2018-05-23T10:37:01.689Z,42016.00
2018-05-23T10:38:01.532Z,32288.00
2018-05-23T10:39:01.542Z,34912.00
2018-05-23T10:40:01.391Z,48800.00
2018-05-23T10:42:43.595Z,42880.00
2018-05-23T10:43:43.647Z,33728.00
2018-05-23T10:44:43.440Z,34176.00
2018-05-23T10:45:43.454Z,26880.00
2018-05-23T10:46:43.307Z,25440.00
2018-05-23T10:49:25.817Z,27520.00
2018-05-23T10:52:07.671Z,22528.00
2018-05-23T10:53:07.634Z,17824.00
2018-05-23T10:54:07.472Z,16832.00
2018-05-23T10:55:07.446Z,12964.00
2018-05-23T10:56:07.305Z,11280.00
2018-05-23T10:58:49.638Z,9696.00
2018-05-23T10:59:49.559Z,9788.00
2018-05-23T11:00:49.441Z,9928.00
2018-05-23T11:01:49.466Z,10400.00
2018-05-23T11:02:49.386Z,11028.00
2018-05-23T11:03:49.327Z,11868.00
2018-05-23T11:04:49.197Z,12684.00
2018-05-23T11:07:31.121Z,14308.00
2018-05-23T11:08:31.073Z,14012.00
2018-05-23T11:09:30.986Z,13604.00
2018-05-23T11:10:30.991Z,12724.00
2018-05-23T11:11:30.803Z,11724.00
2018-05-23T11:12:30.806Z,11336.00
2018-05-23T11:13:30.655Z,11820.00
2018-05-23T11:14:30.688Z,12200.00
2018-05-23T11:15:30.503Z,12292.00
2018-05-23T11:18:12.606Z,10888.00
2018-05-23T11:19:12.635Z,10000.00
2018-05-23T11:20:12.490Z,9224.00
2018-05-23T11:21:12.417Z,8288.00
2018-05-23T11:22:12.299Z,7348.00
2018-05-23T11:23:12.329Z,6712.00
2018-05-23T11:24:12.170Z,6320.00
2018-05-23T11:25:12.168Z,6004.00
2018-05-23T11:26:12.020Z,5772.00
2018-05-23T11:27:12.058Z,5592.00
2018-05-23T11:28:11.857Z,5352.00
2018-05-23T11:30:54.134Z,5044.00
2018-05-23T11:31:54.062Z,5032.00
2018-05-23T11:32:53.960Z,4984.00
2018-05-23T11:33:53.980Z,4964.00
2018-05-23T11:34:53.812Z,4904.00
2018-05-23T11:35:54.847Z,4896.00
2018-05-23T11:36:53.652Z,4900.00
2018-05-23T11:37:53.696Z,4908.00
2018-05-23T11:38:53.509Z,4916.00
2018-05-23T11:39:53.525Z,4960.00
2018-05-23T11:40:53.347Z,5028.00
2018-05-23T11:41:53.286Z,5084.00
2018-05-23T11:42:53.208Z,5092.00
2018-05-23T11:43:53.217Z,5168.00
2018-05-23T11:44:53.065Z,5188.00
2018-05-23T11:45:53.070Z,5272.00
2018-05-23T11:46:52.905Z,5308.00
2018-05-23T11:47:52.942Z,5408.00
2018-05-23T11:48:52.743Z,5512.00
2018-05-23T11:49:52.743Z,5540.00
2018-05-23T11:50:52.607Z,5516.00
2018-05-23T11:51:52.557Z,5436.00
2018-05-23T11:52:52.456Z,5344.00
2018-05-23T11:53:52.480Z,5288.00
2018-05-23T11:54:52.279Z,5328.00
2018-05-23T11:55:52.314Z,5400.00
2018-05-23T11:56:52.138Z,5456.00
2018-05-23T11:59:34.116Z,5780.00
2018-05-23T12:00:34.136Z,5940.00
2018-05-23T12:01:33.988Z,6224.00
2018-05-23T12:02:34.000Z,6552.00
2018-05-23T12:03:33.808Z,6928.00
2018-05-23T12:04:33.791Z,7424.00
2018-05-23T12:05:33.654Z,8012.00
2018-05-23T12:06:33.603Z,8696.00
2018-05-23T12:07:33.521Z,9420.00
2018-05-23T12:08:33.535Z,10120.00
2018-05-23T12:09:33.373Z,10920.00
2018-05-23T12:10:33.395Z,11712.00
2018-05-23T12:11:33.207Z,12496.00
2018-05-23T12:12:33.141Z,13156.00
2018-05-23T12:13:33.056Z,13740.00
2018-05-23T12:16:15.147Z,14904.00
2018-05-23T12:17:15.170Z,15168.00
2018-05-23T12:18:14.965Z,15488.00
2018-05-23T12:20:57.117Z,16960.00
2018-05-23T12:21:57.102Z,17120.00
2018-05-23T12:22:56.986Z,16896.00
2018-05-23T12:23:56.948Z,16192.00
2018-05-23T12:24:59.177Z,15556.00
2018-05-23T12:25:56.776Z,14868.00
2018-05-23T12:26:56.712Z,14224.00
2018-05-23T12:27:56.685Z,13888.00
2018-05-23T12:28:57.240Z,13552.00
2018-05-23T12:29:56.495Z,13364.00
2018-05-23T12:30:56.345Z,13204.00
2018-05-23T12:31:56.336Z,13160.00
2018-05-23T12:32:56.212Z,13188.00
2018-05-23T12:33:56.215Z,13204.00
2018-05-23T12:34:56.040Z,13172.00
2018-05-23T12:35:56.026Z,13152.00
2018-05-23T12:36:55.990Z,13264.00
2018-05-23T12:37:55.902Z,13280.00
2018-05-23T12:38:55.752Z,13148.00
2018-05-23T12:39:55.754Z,12984.00
2018-05-23T12:40:55.642Z,12828.00
2018-05-23T12:41:55.682Z,12620.00
2018-05-23T12:42:55.546Z,12304.00
2018-05-23T12:43:55.462Z,12068.00
2018-05-23T12:44:55.324Z,11692.00
2018-05-23T12:45:55.268Z,11464.00
2018-05-23T12:46:55.144Z,11296.00
2018-05-23T12:47:55.560Z,11232.00
2018-05-23T12:48:55.006Z,11308.00
2018-05-23T12:49:54.933Z,11276.00
2018-05-23T12:50:54.843Z,11264.00
2018-05-23T12:51:54.897Z,11504.00
2018-05-23T12:52:54.737Z,11556.00
2018-05-23T12:53:54.744Z,11644.00
2018-05-23T12:54:54.557Z,11668.00
2018-05-23T12:55:54.510Z,11580.00
2018-05-23T12:56:54.415Z,11476.00
2018-05-23T12:59:36.646Z,11324.00
2018-05-23T13:00:36.630Z,11324.00
2018-05-23T13:01:36.476Z,11228.00
2018-05-23T13:02:36.414Z,11140.00
2018-05-23T13:03:36.354Z,10988.00
2018-05-23T13:04:36.379Z,10968.00
2018-05-23T13:05:36.185Z,10900.00
2018-05-23T13:06:36.156Z,10932.00
2018-05-23T13:07:36.032Z,11016.00
2018-05-23T13:08:36.072Z,11136.00
2018-05-23T13:09:35.869Z,11288.00
2018-05-23T13:10:35.906Z,11476.00
2018-05-23T13:11:35.733Z,11728.00
2018-05-23T13:12:35.706Z,12036.00
2018-05-23T13:13:35.572Z,12344.00
2018-05-23T13:14:36.557Z,12692.00
2018-05-23T13:15:35.417Z,13064.00
2018-05-23T13:18:17.639Z,13912.00
2018-05-23T13:19:17.639Z,14160.00
2018-05-23T13:20:17.490Z,14400.00
2018-05-23T13:21:17.527Z,14668.00
2018-05-23T13:22:17.332Z,15008.00
2018-05-23T13:23:17.333Z,15292.00
2018-05-23T13:24:17.240Z,15624.00
2018-05-23T13:25:17.242Z,15764.00
2018-05-23T13:26:17.035Z,15960.00
2018-05-23T13:28:59.171Z,16116.00
2018-05-23T13:30:00.159Z,15980.00
2018-05-23T13:30:58.997Z,15884.00
2018-05-23T13:31:58.916Z,15772.00
2018-05-23T13:32:58.835Z,15696.00
2018-05-23T13:35:41.157Z,15116.00
2018-05-23T13:36:42.123Z,15508.00
2018-05-23T13:37:40.988Z,15628.00
2018-05-23T13:38:40.932Z,15760.00
2018-05-23T13:39:40.855Z,15904.00
2018-05-23T13:40:41.851Z,15936.00
2018-05-23T13:41:40.686Z,15956.00
2018-05-23T13:42:40.646Z,15948.00
2018-05-23T13:43:40.538Z,15864.00
2018-05-23T13:44:40.826Z,15836.00
2018-05-23T13:45:40.578Z,15720.00
2018-05-23T13:46:40.458Z,15660.00
2018-05-23T13:47:40.280Z,15556.00
2018-05-23T13:48:40.186Z,15428.00
2018-05-23T13:49:40.106Z,15416.00
2018-05-23T13:50:40.038Z,15376.00
2018-05-23T13:51:39.978Z,15388.00
2018-05-23T13:54:22.164Z,14628.00
2018-05-23T13:55:22.177Z,14284.00
2018-05-23T13:56:22.025Z,13192.00
2018-05-23T13:59:08.161Z,11416.00
2018-05-23T14:01:50.229Z,10168.00
2018-05-23T14:02:50.083Z,9908.00
2018-05-23T14:03:50.003Z,9840.00
2018-05-23T14:04:50.057Z,9476.00
2018-05-23T14:05:49.869Z,9016.00
2018-05-23T14:06:49.816Z,9016.00
2018-05-23T14:07:49.738Z,9000.00
2018-05-23T14:08:49.634Z,9280.00
2018-05-23T14:09:49.614Z,9192.00
2018-05-23T14:10:49.621Z,8788.00
2018-05-23T14:11:49.408Z,8548.00
2018-05-23T14:12:49.424Z,8372.00
2018-05-23T14:13:49.264Z,8012.00
2018-05-23T14:14:49.301Z,7720.00
2018-05-23T14:15:49.124Z,7496.00
2018-05-23T14:16:49.109Z,7396.00
2018-05-23T14:17:48.998Z,7492.00
2018-05-23T14:18:49.032Z,7556.00
2018-05-23T14:19:48.817Z,7944.00
2018-05-23T14:20:48.845Z,8104.00
2018-05-23T14:21:48.687Z,8412.00
2018-05-23T14:22:48.716Z,8580.00
2018-05-23T14:23:48.563Z,8720.00
2018-05-23T14:26:30.656Z,8860.00
2018-05-23T14:27:30.596Z,9012.00
2018-05-23T14:28:30.639Z,9224.00
2018-05-23T14:29:30.448Z,9408.00
2018-05-23T14:30:30.354Z,9504.00
2018-05-23T14:33:12.684Z,8552.00
2018-05-23T14:34:12.704Z,8300.00
2018-05-23T14:35:12.514Z,7936.00
2018-05-23T14:36:12.478Z,7496.00
2018-05-23T14:37:12.367Z,7044.00
2018-05-23T14:38:12.386Z,6868.00
2018-05-23T14:39:12.283Z,6672.00
2018-05-23T14:40:12.204Z,6452.00
2018-05-23T14:41:12.079Z,6224.00
2018-05-23T14:42:12.104Z,5964.00
2018-05-23T14:43:11.958Z,5772.00
2018-05-23T14:44:11.956Z,5612.00
2018-05-23T14:45:11.783Z,5552.00
2018-05-23T14:46:11.732Z,5520.00
2018-05-23T14:47:11.631Z,5528.00
2018-05-23T14:48:11.668Z,5568.00
2018-05-23T14:49:11.503Z,5708.00
2018-05-23T14:50:11.458Z,5856.00
2018-05-23T14:51:11.330Z,6044.00
2018-05-23T14:53:53.184Z,6472.00
2018-05-23T14:54:53.191Z,6500.00
2018-05-23T14:55:53.028Z,6580.00
2018-05-23T14:58:35.164Z,6660.00
2018-05-23T14:59:35.199Z,6672.00
2018-05-23T15:00:35.017Z,6652.00
2018-05-23T15:01:34.965Z,6648.00
2018-05-23T15:02:34.865Z,6708.00
2018-05-23T15:05:17.196Z,6764.00
2018-05-23T15:06:17.180Z,6828.00